sensor_id;sensor_type;location;lat;lon;timestamp;temperature;humidity
11035;DHT22;5571;48.110;-1.706;2023-05-29T00:01:29;18.30;99.90
11035;DHT22;5571;48.110;-1.706;2023-05-29T00:03:57;18.30;99.90
11035;DHT22;5571;48.110;-1.706;2023-05-29T00:06:24;18.20;99.90
11035;DHT22;5571;48.110;-1.706;2023-05-29T00:08:50;18.20;99.90
11035;DHT22;5571;48.110;-1.706;2023-05-29T00:11:15;18.20;99.90
11035;DHT22;5571;48.110;-1.706;2023-05-29T00:13:41;18.10;99.90
11035;DHT22;5571;48.110;-1.706;2023-05-29T00:16:07;18.10;99.90
11035;DHT22;5571;48.110;-1.706;2023-05-29T00:18:34;18.10;99.90
11035;DHT22;5571;48.110;-1.706;2023-05-29T00:21:00;18.00;99.90
11035;DHT22;5571;48.110;-1.706;2023-05-29T00:23:26;18.00;99.90
11035;DHT22;5571;48.110;-1.706;2023-05-29T00:25:51;18.00;99.90
11035;DHT22;5571;48.110;-1.706;2023-05-29T00:28:17;17.90;99.90
11035;DHT22;5571;48.110;-1.706;2023-05-29T00:30:42;17.90;99.90
11035;DHT22;5571;48.110;-1.706;2023-05-29T00:33:08;17.90;99.90
11035;DHT22;5571;48.110;-1.706;2023-05-29T00:35:33;17.90;99.90
11035;DHT22;5571;48.110;-1.706;2023-05-29T00:37:59;17.90;99.90
11035;DHT22;5571;48.110;-1.706;2023-05-29T00:40:25;17.90;99.90
11035;DHT22;5571;48.110;-1.706;2023-05-29T00:42:51;17.90;99.90
11035;DHT22;5571;48.110;-1.706;2023-05-29T00:45:17;17.80;99.90
11035;DHT22;5571;48.110;-1.706;2023-05-29T00:47:42;17.80;99.90
11035;DHT22;5571;48.110;-1.706;2023-05-29T00:50:09;17.80;99.90
11035;DHT22;5571;48.110;-1.706;2023-05-29T00:52:37;17.70;99.90
11035;DHT22;5571;48.110;-1.706;2023-05-29T00:55:03;17.70;99.90
11035;DHT22;5571;48.110;-1.706;2023-05-29T00:57:30;17.70;99.90
11035;DHT22;5571;48.110;-1.706;2023-05-29T00:59:58;17.70;99.90
11035;DHT22;5571;48.110;-1.706;2023-05-29T01:02:24;17.70;99.90
11035;DHT22;5571;48.110;-1.706;2023-05-29T01:04:50;17.60;99.90
11035;DHT22;5571;48.110;-1.706;2023-05-29T01:07:20;17.70;99.90
11035;DHT22;5571;48.110;-1.706;2023-05-29T01:09:45;17.50;99.90
11035;DHT22;5571;48.110;-1.706;2023-05-29T01:17:29;17.50;99.90
11035;DHT22;5571;48.110;-1.706;2023-05-29T01:22:45;17.50;99.90
11035;DHT22;5571;48.110;-1.706;2023-05-29T01:27:52;17.50;99.90
11035;DHT22;5571;48.110;-1.706;2023-05-29T01:30:20;17.50;99.90
11035;DHT22;5571;48.110;-1.706;2023-05-29T01:32:47;17.50;99.90
11035;DHT22;5571;48.110;-1.706;2023-05-29T01:35:12;17.50;99.90
11035;DHT22;5571;48.110;-1.706;2023-05-29T01:37:38;17.40;99.90
11035;DHT22;5571;48.110;-1.706;2023-05-29T01:40:04;17.40;99.90
11035;DHT22;5571;48.110;-1.706;2023-05-29T01:42:30;17.30;99.90
11035;DHT22;5571;48.110;-1.706;2023-05-29T01:44:57;17.30;99.90
11035;DHT22;5571;48.110;-1.706;2023-05-29T01:47:23;17.20;99.90
11035;DHT22;5571;48.110;-1.706;2023-05-29T01:49:51;17.30;99.90
11035;DHT22;5571;48.110;-1.706;2023-05-29T01:52:17;17.30;99.90
11035;DHT22;5571;48.110;-1.706;2023-05-29T01:54:44;17.20;99.90
11035;DHT22;5571;48.110;-1.706;2023-05-29T01:57:10;17.20;99.90
11035;DHT22;5571;48.110;-1.706;2023-05-29T01:59:37;17.20;99.90
11035;DHT22;5571;48.110;-1.706;2023-05-29T02:02:09;17.20;99.90
11035;DHT22;5571;48.110;-1.706;2023-05-29T02:04:35;17.20;99.90
11035;DHT22;5571;48.110;-1.706;2023-05-29T02:07:01;17.20;99.90
11035;DHT22;5571;48.110;-1.706;2023-05-29T02:09:27;17.20;99.90
11035;DHT22;5571;48.110;-1.706;2023-05-29T02:11:53;17.20;99.90
11035;DHT22;5571;48.110;-1.706;2023-05-29T02:14:19;17.10;99.90
11035;DHT22;5571;48.110;-1.706;2023-05-29T02:16:44;17.10;99.90
11035;DHT22;5571;48.110;-1.706;2023-05-29T02:19:10;17.10;99.90
11035;DHT22;5571;48.110;-1.706;2023-05-29T02:21:39;17.10;99.90
11035;DHT22;5571;48.110;-1.706;2023-05-29T02:24:06;17.10;99.90
11035;DHT22;5571;48.110;-1.706;2023-05-29T02:26:32;17.10;99.90
11035;DHT22;5571;48.110;-1.706;2023-05-29T02:28:58;17.10;99.90
11035;DHT22;5571;48.110;-1.706;2023-05-29T02:31:23;17.00;99.90
11035;DHT22;5571;48.110;-1.706;2023-05-29T02:33:49;16.90;99.90
11035;DHT22;5571;48.110;-1.706;2023-05-29T02:36:15;16.90;99.90
11035;DHT22;5571;48.110;-1.706;2023-05-29T02:38:41;16.90;99.90
11035;DHT22;5571;48.110;-1.706;2023-05-29T02:41:07;16.90;99.90
11035;DHT22;5571;48.110;-1.706;2023-05-29T02:43:32;16.90;99.90
11035;DHT22;5571;48.110;-1.706;2023-05-29T02:45:58;16.80;99.90
11035;DHT22;5571;48.110;-1.706;2023-05-29T02:48:24;16.80;99.90
11035;DHT22;5571;48.110;-1.706;2023-05-29T02:50:51;16.80;99.90
11035;DHT22;5571;48.110;-1.706;2023-05-29T02:53:17;16.80;99.90
11035;DHT22;5571;48.110;-1.706;2023-05-29T02:55:42;16.80;99.90
11035;DHT22;5571;48.110;-1.706;2023-05-29T02:58:08;16.80;99.90
11035;DHT22;5571;48.110;-1.706;2023-05-29T03:00:33;16.80;99.90
11035;DHT22;5571;48.110;-1.706;2023-05-29T03:03:00;16.80;99.90
11035;DHT22;5571;48.110;-1.706;2023-05-29T03:05:26;16.80;99.90
11035;DHT22;5571;48.110;-1.706;2023-05-29T03:07:51;16.80;99.90
11035;DHT22;5571;48.110;-1.706;2023-05-29T03:10:17;16.70;99.90
11035;DHT22;5571;48.110;-1.706;2023-05-29T03:12:43;16.70;99.90
11035;DHT22;5571;48.110;-1.706;2023-05-29T03:15:10;16.70;99.90
11035;DHT22;5571;48.110;-1.706;2023-05-29T03:17:35;16.60;99.90
11035;DHT22;5571;48.110;-1.706;2023-05-29T03:20:04;16.70;99.90
11035;DHT22;5571;48.110;-1.706;2023-05-29T03:22:34;16.60;99.90
11035;DHT22;5571;48.110;-1.706;2023-05-29T03:25:02;16.50;99.90
11035;DHT22;5571;48.110;-1.706;2023-05-29T03:27:28;16.50;99.90
11035;DHT22;5571;48.110;-1.706;2023-05-29T03:29:54;16.40;99.90
11035;DHT22;5571;48.110;-1.706;2023-05-29T03:32:20;16.40;99.90
11035;DHT22;5571;48.110;-1.706;2023-05-29T03:34:46;16.40;99.90
11035;DHT22;5571;48.110;-1.706;2023-05-29T03:37:13;16.40;99.90
11035;DHT22;5571;48.110;-1.706;2023-05-29T03:39:38;16.40;99.90
11035;DHT22;5571;48.110;-1.706;2023-05-29T03:42:04;16.30;99.90
11035;DHT22;5571;48.110;-1.706;2023-05-29T03:44:30;16.30;99.90
11035;DHT22;5571;48.110;-1.706;2023-05-29T03:46:56;16.30;99.90
11035;DHT22;5571;48.110;-1.706;2023-05-29T03:49:21;16.30;99.90
11035;DHT22;5571;48.110;-1.706;2023-05-29T03:51:47;16.30;99.90
11035;DHT22;5571;48.110;-1.706;2023-05-29T03:54:12;16.20;99.90
11035;DHT22;5571;48.110;-1.706;2023-05-29T03:56:38;16.20;99.90
11035;DHT22;5571;48.110;-1.706;2023-05-29T03:59:03;16.20;99.90
11035;DHT22;5571;48.110;-1.706;2023-05-29T04:01:29;16.20;99.90
11035;DHT22;5571;48.110;-1.706;2023-05-29T04:03:55;16.20;99.90
11035;DHT22;5571;48.110;-1.706;2023-05-29T04:06:20;16.20;99.90
11035;DHT22;5571;48.110;-1.706;2023-05-29T04:08:47;16.20;99.90
11035;DHT22;5571;48.110;-1.706;2023-05-29T04:11:13;16.20;99.90
11035;DHT22;5571;48.110;-1.706;2023-05-29T04:13:39;16.10;99.90
11035;DHT22;5571;48.110;-1.706;2023-05-29T04:16:05;16.10;99.90
11035;DHT22;5571;48.110;-1.706;2023-05-29T04:18:31;16.20;99.90
11035;DHT22;5571;48.110;-1.706;2023-05-29T04:20:57;16.20;99.90
11035;DHT22;5571;48.110;-1.706;2023-05-29T04:23:22;16.10;99.90
11035;DHT22;5571;48.110;-1.706;2023-05-29T04:25:48;16.00;99.90
11035;DHT22;5571;48.110;-1.706;2023-05-29T04:28:16;16.10;99.90
11035;DHT22;5571;48.110;-1.706;2023-05-29T04:30:42;16.10;99.90
11035;DHT22;5571;48.110;-1.706;2023-05-29T04:33:08;16.10;99.90
11035;DHT22;5571;48.110;-1.706;2023-05-29T04:35:35;15.90;99.90
11035;DHT22;5571;48.110;-1.706;2023-05-29T04:38:01;16.00;99.90
11035;DHT22;5571;48.110;-1.706;2023-05-29T04:40:26;15.90;99.90
11035;DHT22;5571;48.110;-1.706;2023-05-29T04:42:52;15.90;99.90
11035;DHT22;5571;48.110;-1.706;2023-05-29T04:45:20;15.90;99.90
11035;DHT22;5571;48.110;-1.706;2023-05-29T04:47:46;15.90;99.90
11035;DHT22;5571;48.110;-1.706;2023-05-29T04:50:16;15.90;99.90
11035;DHT22;5571;48.110;-1.706;2023-05-29T04:52:42;15.90;99.90
11035;DHT22;5571;48.110;-1.706;2023-05-29T04:55:08;15.90;99.90
11035;DHT22;5571;48.110;-1.706;2023-05-29T04:57:35;15.90;99.90
11035;DHT22;5571;48.110;-1.706;2023-05-29T05:00:02;15.90;99.90
11035;DHT22;5571;48.110;-1.706;2023-05-29T05:02:32;16.00;99.90
11035;DHT22;5571;48.110;-1.706;2023-05-29T05:04:58;16.00;99.90
11035;DHT22;5571;48.110;-1.706;2023-05-29T05:07:24;16.00;99.90
11035;DHT22;5571;48.110;-1.706;2023-05-29T05:09:49;16.00;99.90
11035;DHT22;5571;48.110;-1.706;2023-05-29T05:12:15;16.00;99.90
11035;DHT22;5571;48.110;-1.706;2023-05-29T05:14:41;16.00;99.90
11035;DHT22;5571;48.110;-1.706;2023-05-29T05:17:06;16.00;99.90
11035;DHT22;5571;48.110;-1.706;2023-05-29T05:19:32;16.00;99.90
11035;DHT22;5571;48.110;-1.706;2023-05-29T05:21:58;15.90;99.90
11035;DHT22;5571;48.110;-1.706;2023-05-29T05:24:23;16.00;99.90
11035;DHT22;5571;48.110;-1.706;2023-05-29T05:26:49;16.00;99.90
11035;DHT22;5571;48.110;-1.706;2023-05-29T05:29:14;16.00;99.90
11035;DHT22;5571;48.110;-1.706;2023-05-29T05:31:40;16.00;99.90
11035;DHT22;5571;48.110;-1.706;2023-05-29T05:34:06;16.10;99.90
11035;DHT22;5571;48.110;-1.706;2023-05-29T05:36:31;16.10;99.90
11035;DHT22;5571;48.110;-1.706;2023-05-29T05:38:58;16.10;99.90
11035;DHT22;5571;48.110;-1.706;2023-05-29T05:41:23;16.10;99.90
11035;DHT22;5571;48.110;-1.706;2023-05-29T05:43:49;16.10;99.90
11035;DHT22;5571;48.110;-1.706;2023-05-29T05:46:15;16.00;99.90
11035;DHT22;5571;48.110;-1.706;2023-05-29T05:48:43;16.10;99.90
11035;DHT22;5571;48.110;-1.706;2023-05-29T05:51:08;16.10;99.90
11035;DHT22;5571;48.110;-1.706;2023-05-29T05:53:34;16.20;99.90
11035;DHT22;5571;48.110;-1.706;2023-05-29T05:55:59;16.20;99.90
11035;DHT22;5571;48.110;-1.706;2023-05-29T05:58:26;16.30;99.90
11035;DHT22;5571;48.110;-1.706;2023-05-29T06:00:51;16.30;99.90
11035;DHT22;5571;48.110;-1.706;2023-05-29T06:03:17;16.30;99.90
11035;DHT22;5571;48.110;-1.706;2023-05-29T06:05:43;16.30;99.90
11035;DHT22;5571;48.110;-1.706;2023-05-29T06:08:09;16.30;99.90
11035;DHT22;5571;48.110;-1.706;2023-05-29T06:10:34;16.40;99.90
11035;DHT22;5571;48.110;-1.706;2023-05-29T06:13:00;16.40;99.90
11035;DHT22;5571;48.110;-1.706;2023-05-29T06:15:26;16.40;99.90
11035;DHT22;5571;48.110;-1.706;2023-05-29T06:17:51;16.50;99.90
11035;DHT22;5571;48.110;-1.706;2023-05-29T06:20:17;16.50;99.90
11035;DHT22;5571;48.110;-1.706;2023-05-29T06:22:44;16.60;99.90
11035;DHT22;5571;48.110;-1.706;2023-05-29T06:25:18;16.50;99.90
11035;DHT22;5571;48.110;-1.706;2023-05-29T06:27:45;16.60;99.90
11035;DHT22;5571;48.110;-1.706;2023-05-29T06:30:11;16.70;99.90
11035;DHT22;5571;48.110;-1.706;2023-05-29T06:32:37;16.70;99.90
11035;DHT22;5571;48.110;-1.706;2023-05-29T06:35:03;16.80;99.90
11035;DHT22;5571;48.110;-1.706;2023-05-29T06:37:29;16.90;99.90
11035;DHT22;5571;48.110;-1.706;2023-05-29T06:39:55;17.00;99.90
11035;DHT22;5571;48.110;-1.706;2023-05-29T06:42:20;17.00;99.90
11035;DHT22;5571;48.110;-1.706;2023-05-29T06:44:46;17.10;99.90
11035;DHT22;5571;48.110;-1.706;2023-05-29T06:47:11;17.20;99.90
11035;DHT22;5571;48.110;-1.706;2023-05-29T06:49:37;17.20;99.90
11035;DHT22;5571;48.110;-1.706;2023-05-29T06:52:03;17.30;99.90
11035;DHT22;5571;48.110;-1.706;2023-05-29T06:54:28;17.30;99.90
11035;DHT22;5571;48.110;-1.706;2023-05-29T06:56:54;17.30;99.90
11035;DHT22;5571;48.110;-1.706;2023-05-29T06:59:20;17.30;99.90
11035;DHT22;5571;48.110;-1.706;2023-05-29T07:01:46;17.20;99.90
11035;DHT22;5571;48.110;-1.706;2023-05-29T07:04:12;17.30;99.90
11035;DHT22;5571;48.110;-1.706;2023-05-29T07:06:37;17.20;99.90
11035;DHT22;5571;48.110;-1.706;2023-05-29T07:09:04;17.20;99.90
11035;DHT22;5571;48.110;-1.706;2023-05-29T07:11:30;17.30;99.90
11035;DHT22;5571;48.110;-1.706;2023-05-29T07:13:55;17.30;99.90
11035;DHT22;5571;48.110;-1.706;2023-05-29T07:16:21;17.30;99.90
11035;DHT22;5571;48.110;-1.706;2023-05-29T07:18:46;17.40;99.90
11035;DHT22;5571;48.110;-1.706;2023-05-29T07:21:12;17.40;99.90
11035;DHT22;5571;48.110;-1.706;2023-05-29T07:23:39;17.50;99.90
11035;DHT22;5571;48.110;-1.706;2023-05-29T07:26:05;17.60;99.90
11035;DHT22;5571;48.110;-1.706;2023-05-29T07:28:31;17.60;99.90
11035;DHT22;5571;48.110;-1.706;2023-05-29T07:30:57;17.60;99.90
11035;DHT22;5571;48.110;-1.706;2023-05-29T07:33:22;17.70;99.90
11035;DHT22;5571;48.110;-1.706;2023-05-29T07:35:48;17.70;99.90
11035;DHT22;5571;48.110;-1.706;2023-05-29T07:38:14;17.70;99.90
11035;DHT22;5571;48.110;-1.706;2023-05-29T07:40:39;17.80;99.90
11035;DHT22;5571;48.110;-1.706;2023-05-29T07:43:05;17.80;99.90
11035;DHT22;5571;48.110;-1.706;2023-05-29T07:45:31;17.90;99.90
11035;DHT22;5571;48.110;-1.706;2023-05-29T07:47:57;18.00;99.90
11035;DHT22;5571;48.110;-1.706;2023-05-29T07:50:22;18.10;99.90
11035;DHT22;5571;48.110;-1.706;2023-05-29T07:52:48;18.10;99.90
11035;DHT22;5571;48.110;-1.706;2023-05-29T07:55:14;18.10;99.90
11035;DHT22;5571;48.110;-1.706;2023-05-29T07:57:39;18.10;99.90
11035;DHT22;5571;48.110;-1.706;2023-05-29T08:00:05;18.10;99.90
11035;DHT22;5571;48.110;-1.706;2023-05-29T08:02:33;18.10;99.90
11035;DHT22;5571;48.110;-1.706;2023-05-29T08:04:58;18.10;99.90
11035;DHT22;5571;48.110;-1.706;2023-05-29T08:07:24;18.20;99.90
11035;DHT22;5571;48.110;-1.706;2023-05-29T08:09:52;18.30;99.90
11035;DHT22;5571;48.110;-1.706;2023-05-29T08:12:18;18.40;99.90
11035;DHT22;5571;48.110;-1.706;2023-05-29T08:14:43;18.30;99.90
11035;DHT22;5571;48.110;-1.706;2023-05-29T08:17:10;18.30;99.90
11035;DHT22;5571;48.110;-1.706;2023-05-29T08:19:35;18.40;99.90
11035;DHT22;5571;48.110;-1.706;2023-05-29T08:22:01;18.50;99.90
11035;DHT22;5571;48.110;-1.706;2023-05-29T08:24:27;18.40;99.90
11035;DHT22;5571;48.110;-1.706;2023-05-29T08:26:53;18.50;99.90
11035;DHT22;5571;48.110;-1.706;2023-05-29T08:29:19;18.50;99.90
11035;DHT22;5571;48.110;-1.706;2023-05-29T08:31:44;18.60;99.90
11035;DHT22;5571;48.110;-1.706;2023-05-29T08:34:10;18.70;99.90
11035;DHT22;5571;48.110;-1.706;2023-05-29T08:36:35;18.80;99.90
11035;DHT22;5571;48.110;-1.706;2023-05-29T08:39:01;18.80;99.90
11035;DHT22;5571;48.110;-1.706;2023-05-29T08:41:28;19.00;99.90
11035;DHT22;5571;48.110;-1.706;2023-05-29T08:43:56;19.00;99.90
11035;DHT22;5571;48.110;-1.706;2023-05-29T08:46:25;19.00;99.90
11035;DHT22;5571;48.110;-1.706;2023-05-29T08:48:53;19.10;99.90
11035;DHT22;5571;48.110;-1.706;2023-05-29T08:51:20;19.20;99.90
11035;DHT22;5571;48.110;-1.706;2023-05-29T08:53:49;19.20;99.90
11035;DHT22;5571;48.110;-1.706;2023-05-29T08:56:16;19.30;99.90
11035;DHT22;5571;48.110;-1.706;2023-05-29T08:58:43;19.40;99.90
11035;DHT22;5571;48.110;-1.706;2023-05-29T09:01:09;19.50;99.90
11035;DHT22;5571;48.110;-1.706;2023-05-29T09:03:35;19.60;99.90
11035;DHT22;5571;48.110;-1.706;2023-05-29T09:06:03;19.70;99.90
11035;DHT22;5571;48.110;-1.706;2023-05-29T09:08:29;19.80;99.90
11035;DHT22;5571;48.110;-1.706;2023-05-29T09:10:55;19.90;99.90
11035;DHT22;5571;48.110;-1.706;2023-05-29T09:13:22;20.00;99.90
11035;DHT22;5571;48.110;-1.706;2023-05-29T09:15:48;20.00;99.90
11035;DHT22;5571;48.110;-1.706;2023-05-29T09:18:16;20.00;99.90
11035;DHT22;5571;48.110;-1.706;2023-05-29T09:20:42;20.10;99.90
11035;DHT22;5571;48.110;-1.706;2023-05-29T09:23:09;20.10;99.90
11035;DHT22;5571;48.110;-1.706;2023-05-29T09:25:42;20.20;99.90
11035;DHT22;5571;48.110;-1.706;2023-05-29T09:28:11;20.20;99.90
11035;DHT22;5571;48.110;-1.706;2023-05-29T09:30:41;20.30;99.90
11035;DHT22;5571;48.110;-1.706;2023-05-29T09:33:09;20.40;99.90
11035;DHT22;5571;48.110;-1.706;2023-05-29T09:35:37;20.50;99.90
11035;DHT22;5571;48.110;-1.706;2023-05-29T09:38:03;20.50;99.90
11035;DHT22;5571;48.110;-1.706;2023-05-29T09:40:40;20.50;99.90
11035;DHT22;5571;48.110;-1.706;2023-05-29T09:43:19;20.60;99.90
11035;DHT22;5571;48.110;-1.706;2023-05-29T09:45:49;20.60;99.90
11035;DHT22;5571;48.110;-1.706;2023-05-29T09:48:17;20.70;99.90
11035;DHT22;5571;48.110;-1.706;2023-05-29T09:50:44;20.80;99.90
11035;DHT22;5571;48.110;-1.706;2023-05-29T09:53:17;20.90;99.90
11035;DHT22;5571;48.110;-1.706;2023-05-29T09:55:48;20.90;99.90
11035;DHT22;5571;48.110;-1.706;2023-05-29T09:58:17;21.10;99.90
11035;DHT22;5571;48.110;-1.706;2023-05-29T10:00:43;21.10;99.90
11035;DHT22;5571;48.110;-1.706;2023-05-29T10:03:10;21.30;99.90
11035;DHT22;5571;48.110;-1.706;2023-05-29T10:05:38;21.40;99.90
11035;DHT22;5571;48.110;-1.706;2023-05-29T10:08:05;21.50;99.90
11035;DHT22;5571;48.110;-1.706;2023-05-29T10:10:34;21.40;99.90
11035;DHT22;5571;48.110;-1.706;2023-05-29T10:13:02;21.50;99.90
11035;DHT22;5571;48.110;-1.706;2023-05-29T10:15:31;21.60;99.90
11035;DHT22;5571;48.110;-1.706;2023-05-29T10:18:03;21.60;99.90
11035;DHT22;5571;48.110;-1.706;2023-05-29T10:20:35;21.60;99.90
11035;DHT22;5571;48.110;-1.706;2023-05-29T10:23:02;21.60;99.90
11035;DHT22;5571;48.110;-1.706;2023-05-29T10:25:31;21.60;99.90
11035;DHT22;5571;48.110;-1.706;2023-05-29T10:27:57;21.60;99.90
11035;DHT22;5571;48.110;-1.706;2023-05-29T10:30:39;21.40;99.90
11035;DHT22;5571;48.110;-1.706;2023-05-29T10:38:27;21.50;99.90
11035;DHT22;5571;48.110;-1.706;2023-05-29T10:40:52;21.60;99.90
11035;DHT22;5571;48.110;-1.706;2023-05-29T10:43:31;21.60;99.90
11035;DHT22;5571;48.110;-1.706;2023-05-29T10:46:03;21.70;99.90
11035;DHT22;5571;48.110;-1.706;2023-05-29T10:48:39;21.80;99.90
11035;DHT22;5571;48.110;-1.706;2023-05-29T10:51:07;21.70;99.90
11035;DHT22;5571;48.110;-1.706;2023-05-29T10:53:33;21.70;99.90
11035;DHT22;5571;48.110;-1.706;2023-05-29T10:55:59;21.70;99.90
11035;DHT22;5571;48.110;-1.706;2023-05-29T10:58:27;21.80;99.90
11035;DHT22;5571;48.110;-1.706;2023-05-29T11:00:54;22.00;99.90
11035;DHT22;5571;48.110;-1.706;2023-05-29T11:03:21;22.20;99.90
11035;DHT22;5571;48.110;-1.706;2023-05-29T11:06:04;22.30;99.90
11035;DHT22;5571;48.110;-1.706;2023-05-29T11:09:04;22.50;99.90
11035;DHT22;5571;48.110;-1.706;2023-05-29T11:11:33;22.60;99.90
11035;DHT22;5571;48.110;-1.706;2023-05-29T11:14:03;22.60;99.90
11035;DHT22;5571;48.110;-1.706;2023-05-29T11:18:56;22.70;99.90
11035;DHT22;5571;48.110;-1.706;2023-05-29T11:24:43;22.80;99.90
11035;DHT22;5571;48.110;-1.706;2023-05-29T11:27:10;22.90;99.90
11035;DHT22;5571;48.110;-1.706;2023-05-29T11:29:37;22.90;99.90
11035;DHT22;5571;48.110;-1.706;2023-05-29T11:32:05;23.10;99.90
11035;DHT22;5571;48.110;-1.706;2023-05-29T11:34:33;23.10;99.90
11035;DHT22;5571;48.110;-1.706;2023-05-29T11:37:00;23.20;99.90
11035;DHT22;5571;48.110;-1.706;2023-05-29T11:39:27;23.20;99.90
11035;DHT22;5571;48.110;-1.706;2023-05-29T11:41:53;23.20;99.90
11035;DHT22;5571;48.110;-1.706;2023-05-29T11:44:19;23.40;99.90
11035;DHT22;5571;48.110;-1.706;2023-05-29T11:46:45;23.30;99.90
11035;DHT22;5571;48.110;-1.706;2023-05-29T11:49:11;23.40;99.90
11035;DHT22;5571;48.110;-1.706;2023-05-29T11:51:37;23.50;99.90
11035;DHT22;5571;48.110;-1.706;2023-05-29T11:54:03;23.70;99.90
11035;DHT22;5571;48.110;-1.706;2023-05-29T11:56:29;23.90;99.90
11035;DHT22;5571;48.110;-1.706;2023-05-29T11:58:57;24.00;99.90
11035;DHT22;5571;48.110;-1.706;2023-05-29T12:01:25;24.10;99.90
11035;DHT22;5571;48.110;-1.706;2023-05-29T12:03:52;24.10;99.90
11035;DHT22;5571;48.110;-1.706;2023-05-29T12:06:34;24.30;99.90
11035;DHT22;5571;48.110;-1.706;2023-05-29T12:09:02;24.20;99.90
11035;DHT22;5571;48.110;-1.706;2023-05-29T12:11:29;24.40;99.90
11035;DHT22;5571;48.110;-1.706;2023-05-29T12:13:58;24.50;99.90
11035;DHT22;5571;48.110;-1.706;2023-05-29T12:16:29;24.60;99.90
11035;DHT22;5571;48.110;-1.706;2023-05-29T12:18:56;24.70;99.90
11035;DHT22;5571;48.110;-1.706;2023-05-29T12:21:22;24.80;99.90
11035;DHT22;5571;48.110;-1.706;2023-05-29T12:23:52;24.80;99.90
11035;DHT22;5571;48.110;-1.706;2023-05-29T12:26:17;25.00;99.90
11035;DHT22;5571;48.110;-1.706;2023-05-29T12:28:45;25.20;99.90
11035;DHT22;5571;48.110;-1.706;2023-05-29T12:31:11;25.20;99.90
11035;DHT22;5571;48.110;-1.706;2023-05-29T12:33:42;25.20;99.90
11035;DHT22;5571;48.110;-1.706;2023-05-29T12:36:09;25.30;99.90
11035;DHT22;5571;48.110;-1.706;2023-05-29T12:38:51;25.10;99.90
11035;DHT22;5571;48.110;-1.706;2023-05-29T12:41:32;25.20;99.90
11035;DHT22;5571;48.110;-1.706;2023-05-29T12:44:00;25.20;99.90
11035;DHT22;5571;48.110;-1.706;2023-05-29T12:46:26;25.20;99.90
11035;DHT22;5571;48.110;-1.706;2023-05-29T12:48:56;25.30;99.90
11035;DHT22;5571;48.110;-1.706;2023-05-29T12:51:26;25.50;99.90
11035;DHT22;5571;48.110;-1.706;2023-05-29T12:53:52;25.70;99.90
11035;DHT22;5571;48.110;-1.706;2023-05-29T12:56:23;25.70;99.90
11035;DHT22;5571;48.110;-1.706;2023-05-29T12:58:51;25.80;99.90
11035;DHT22;5571;48.110;-1.706;2023-05-29T13:01:17;26.00;99.90
11035;DHT22;5571;48.110;-1.706;2023-05-29T13:03:43;25.90;99.90
11035;DHT22;5571;48.110;-1.706;2023-05-29T13:06:09;26.00;99.90
11035;DHT22;5571;48.110;-1.706;2023-05-29T13:08:35;26.10;99.90
11035;DHT22;5571;48.110;-1.706;2023-05-29T13:11:01;26.00;99.90
11035;DHT22;5571;48.110;-1.706;2023-05-29T13:13:26;26.00;99.90
11035;DHT22;5571;48.110;-1.706;2023-05-29T13:15:52;26.10;99.90
11035;DHT22;5571;48.110;-1.706;2023-05-29T13:18:17;26.10;99.90
11035;DHT22;5571;48.110;-1.706;2023-05-29T13:20:43;26.30;99.90
11035;DHT22;5571;48.110;-1.706;2023-05-29T13:23:08;26.30;99.90
11035;DHT22;5571;48.110;-1.706;2023-05-29T13:25:34;26.40;99.90
11035;DHT22;5571;48.110;-1.706;2023-05-29T13:28:00;26.50;99.90
11035;DHT22;5571;48.110;-1.706;2023-05-29T13:30:26;26.50;99.90
11035;DHT22;5571;48.110;-1.706;2023-05-29T13:32:52;26.50;99.90
11035;DHT22;5571;48.110;-1.706;2023-05-29T13:35:19;26.60;99.90
11035;DHT22;5571;48.110;-1.706;2023-05-29T13:37:45;26.70;99.90
11035;DHT22;5571;48.110;-1.706;2023-05-29T13:40:11;26.70;99.90
11035;DHT22;5571;48.110;-1.706;2023-05-29T13:42:39;26.70;99.90
11035;DHT22;5571;48.110;-1.706;2023-05-29T13:45:05;26.60;99.90
11035;DHT22;5571;48.110;-1.706;2023-05-29T13:47:32;26.60;99.90
11035;DHT22;5571;48.110;-1.706;2023-05-29T13:49:58;26.70;99.90
11035;DHT22;5571;48.110;-1.706;2023-05-29T13:52:25;26.60;99.90
11035;DHT22;5571;48.110;-1.706;2023-05-29T13:54:51;26.60;99.90
11035;DHT22;5571;48.110;-1.706;2023-05-29T13:57:16;26.60;99.90
11035;DHT22;5571;48.110;-1.706;2023-05-29T13:59:42;26.70;99.90
11035;DHT22;5571;48.110;-1.706;2023-05-29T14:02:08;26.90;99.90
11035;DHT22;5571;48.110;-1.706;2023-05-29T14:04:33;27.00;99.90
11035;DHT22;5571;48.110;-1.706;2023-05-29T14:06:59;27.10;99.90
11035;DHT22;5571;48.110;-1.706;2023-05-29T14:09:25;27.10;99.90
11035;DHT22;5571;48.110;-1.706;2023-05-29T14:12:03;27.00;99.90
11035;DHT22;5571;48.110;-1.706;2023-05-29T14:14:28;27.00;99.90
11035;DHT22;5571;48.110;-1.706;2023-05-29T14:16:54;26.90;99.90
11035;DHT22;5571;48.110;-1.706;2023-05-29T14:19:21;27.00;99.90
11035;DHT22;5571;48.110;-1.706;2023-05-29T14:21:47;27.00;99.90
11035;DHT22;5571;48.110;-1.706;2023-05-29T14:24:13;27.10;99.90
11035;DHT22;5571;48.110;-1.706;2023-05-29T14:26:39;27.10;99.90
11035;DHT22;5571;48.110;-1.706;2023-05-29T14:29:05;27.10;99.90
11035;DHT22;5571;48.110;-1.706;2023-05-29T14:31:31;27.10;99.90
11035;DHT22;5571;48.110;-1.706;2023-05-29T14:33:57;27.20;99.90
11035;DHT22;5571;48.110;-1.706;2023-05-29T14:36:22;27.40;99.90
11035;DHT22;5571;48.110;-1.706;2023-05-29T14:38:48;27.40;99.90
11035;DHT22;5571;48.110;-1.706;2023-05-29T14:41:15;27.50;99.90
11035;DHT22;5571;48.110;-1.706;2023-05-29T14:43:42;27.50;99.90
11035;DHT22;5571;48.110;-1.706;2023-05-29T14:46:08;27.60;99.90
11035;DHT22;5571;48.110;-1.706;2023-05-29T14:48:33;27.50;99.90
11035;DHT22;5571;48.110;-1.706;2023-05-29T14:50:59;27.50;99.90
11035;DHT22;5571;48.110;-1.706;2023-05-29T14:53:25;27.60;98.80
11035;DHT22;5571;48.110;-1.706;2023-05-29T14:55:50;27.60;99.00
11035;DHT22;5571;48.110;-1.706;2023-05-29T14:58:16;27.60;99.00
11035;DHT22;5571;48.110;-1.706;2023-05-29T15:00:41;27.50;99.40
11035;DHT22;5571;48.110;-1.706;2023-05-29T15:03:07;27.60;99.90
11035;DHT22;5571;48.110;-1.706;2023-05-29T15:05:33;27.60;99.90
11035;DHT22;5571;48.110;-1.706;2023-05-29T15:07:58;27.70;99.90
11035;DHT22;5571;48.110;-1.706;2023-05-29T15:10:26;27.70;99.90
11035;DHT22;5571;48.110;-1.706;2023-05-29T15:12:54;27.70;99.30
11035;DHT22;5571;48.110;-1.706;2023-05-29T15:15:25;27.70;99.70
11035;DHT22;5571;48.110;-1.706;2023-05-29T15:17:52;27.70;99.90
11035;DHT22;5571;48.110;-1.706;2023-05-29T15:20:22;27.60;99.90
11035;DHT22;5571;48.110;-1.706;2023-05-29T15:22:48;27.60;99.90
11035;DHT22;5571;48.110;-1.706;2023-05-29T15:25:14;27.30;99.90
11035;DHT22;5571;48.110;-1.706;2023-05-29T15:27:40;27.30;99.90
11035;DHT22;5571;48.110;-1.706;2023-05-29T15:30:16;27.20;99.90
11035;DHT22;5571;48.110;-1.706;2023-05-29T15:32:43;27.20;99.90
11035;DHT22;5571;48.110;-1.706;2023-05-29T15:35:13;27.30;99.90
11035;DHT22;5571;48.110;-1.706;2023-05-29T15:37:40;27.40;99.90
11035;DHT22;5571;48.110;-1.706;2023-05-29T15:40:06;27.30;99.90
11035;DHT22;5571;48.110;-1.706;2023-05-29T15:42:32;27.10;99.90
11035;DHT22;5571;48.110;-1.706;2023-05-29T15:44:58;27.00;99.90
11035;DHT22;5571;48.110;-1.706;2023-05-29T15:47:24;26.90;99.90
11035;DHT22;5571;48.110;-1.706;2023-05-29T15:49:50;26.90;99.90